Kenedy, Texas
Current Conditions -  °F | °C
As of 7:15 AM on Saturday 22 Nov 2014 (Local Time) from KBEA Reporting Station
Drizzle Drizzle  
Wind Chill: 69°   Ceiling: 1300
Heat Index: 69°   Visibility: 10mi
Dew Point: 68°   Wind: 8mph
Humidity: 97%   Direction: 120°ESE
Pressure: 29.97"   Gusts: NA
Location:  28.82°N, 97.85°W
Report Text: KBEA 221315Z AUTO 12007KT 10SM -DZ BKN013 BKN020 OVC070 21/20 A2997 RMK AO2 LTG DSNT N THRU SE T02050200
Loading
Personal Weather Stations






























Interactive Weather Map New forecast layout! Learn more

10-Day Weather Forecast

Advertisements
Track Severe Weather on mobile